createdAt,value
2022-08-23T00:01:18.461Z,18.30
2022-08-23T00:03:48.748Z,18.30
2022-08-23T00:06:17.127Z,18.30
2022-08-23T00:08:48.701Z,18.30
2022-08-23T00:11:46.630Z,18.30
2022-08-23T00:14:22.246Z,18.30
2022-08-23T00:16:49.667Z,18.40
2022-08-23T00:19:18.054Z,18.40
2022-08-23T00:21:46.159Z,18.40
2022-08-23T00:24:14.320Z,18.40
2022-08-23T00:26:59.578Z,18.30
2022-08-23T00:29:33.661Z,18.30
2022-08-23T00:32:00.872Z,18.30
2022-08-23T00:34:28.279Z,18.20
2022-08-23T00:36:55.561Z,18.20
2022-08-23T00:39:24.080Z,18.10
2022-08-23T00:41:51.744Z,18.10
2022-08-23T00:44:50.896Z,18.20
2022-08-23T00:47:37.463Z,18.20
2022-08-23T00:50:24.706Z,18.20
2022-08-23T00:53:06.751Z,18.20
2022-08-23T00:55:35.172Z,18.30
2022-08-23T00:58:03.194Z,18.30
2022-08-23T01:00:30.907Z,18.20
2022-08-23T01:02:57.784Z,18.20
2022-08-23T01:05:34.641Z,18.20
2022-08-23T01:08:02.343Z,18.20
2022-08-23T01:10:30.934Z,18.20
2022-08-23T01:13:15.321Z,18.20
2022-08-23T01:15:53.006Z,18.20
2022-08-23T01:18:24.655Z,18.20
2022-08-23T01:21:01.547Z,18.20
2022-08-23T01:23:36.473Z,18.20
2022-08-23T01:26:05.409Z,18.30
2022-08-23T01:28:33.604Z,18.20
2022-08-23T01:31:01.746Z,18.20
2022-08-23T01:33:34.392Z,18.20
2022-08-23T01:36:02.235Z,18.20
2022-08-23T01:38:33.146Z,18.20
2022-08-23T01:41:00.974Z,18.20
2022-08-23T01:43:28.118Z,18.20
2022-08-23T01:45:56.612Z,18.20
2022-08-23T01:48:24.562Z,18.30
2022-08-23T01:50:51.533Z,18.20
2022-08-23T01:53:19.414Z,18.30
2022-08-23T01:55:49.634Z,18.30
2022-08-23T01:58:18.542Z,18.30
2022-08-23T02:00:45.525Z,18.30
2022-08-23T02:03:13.828Z,18.20
2022-08-23T02:05:42.692Z,18.30
2022-08-23T02:08:29.763Z,18.20
2022-08-23T02:10:58.014Z,18.30
2022-08-23T02:13:27.044Z,18.20
2022-08-23T02:15:55.079Z,18.20
2022-08-23T02:18:23.146Z,18.20
2022-08-23T02:20:51.962Z,18.20
2022-08-23T02:23:19.955Z,18.20
2022-08-23T02:25:46.862Z,18.20
2022-08-23T02:28:14.849Z,18.10
2022-08-23T02:30:44.145Z,18.10
2022-08-23T02:33:13.144Z,18.10
2022-08-23T02:35:42.585Z,18.10
2022-08-23T02:38:11.836Z,18.10
2022-08-23T02:40:40.210Z,18.10
2022-08-23T02:43:07.226Z,18.10
2022-08-23T02:45:34.647Z,18.10
2022-08-23T02:48:01.733Z,18.10
2022-08-23T02:50:36.648Z,18.00
2022-08-23T02:53:04.417Z,18.00
2022-08-23T02:55:32.738Z,18.00
2022-08-23T02:57:59.842Z,18.10
2022-08-23T03:00:26.854Z,18.10
2022-08-23T03:02:53.964Z,18.00
2022-08-23T03:05:21.401Z,18.00
2022-08-23T03:07:48.211Z,18.00
2022-08-23T03:10:16.885Z,18.00
2022-08-23T03:12:50.482Z,18.00
2022-08-23T03:15:17.385Z,18.00
2022-08-23T03:17:44.225Z,18.00
2022-08-23T03:20:11.437Z,18.00
2022-08-23T03:22:38.263Z,18.00
2022-08-23T03:25:06.729Z,18.00
2022-08-23T03:27:46.521Z,18.00
2022-08-23T03:30:17.818Z,18.00
2022-08-23T03:32:51.585Z,18.00
2022-08-23T03:35:19.064Z,18.00
2022-08-23T03:37:45.989Z,18.00
2022-08-23T03:40:14.160Z,18.00
2022-08-23T03:42:41.083Z,17.90
2022-08-23T03:45:08.377Z,17.90
2022-08-23T03:47:35.953Z,17.90
2022-08-23T03:50:02.990Z,17.90
2022-08-23T03:52:31.157Z,17.90
2022-08-23T03:54:58.848Z,17.80
2022-08-23T03:57:28.045Z,17.90
2022-08-23T03:59:54.981Z,17.80
2022-08-23T04:02:22.357Z,17.90
2022-08-23T04:04:49.308Z,17.90
2022-08-23T04:07:21.784Z,17.90
2022-08-23T04:09:55.166Z,17.80
2022-08-23T04:12:24.082Z,17.80
2022-08-23T04:14:51.324Z,17.80
2022-08-23T04:17:20.998Z,17.80
2022-08-23T04:19:49.315Z,17.90
2022-08-23T04:22:18.389Z,17.80
2022-08-23T04:24:46.321Z,17.90
2022-08-23T04:27:14.454Z,17.80
2022-08-23T04:29:42.135Z,17.80
2022-08-23T04:32:11.674Z,17.80
2022-08-23T04:34:40.179Z,17.80
2022-08-23T04:37:09.240Z,17.80
2022-08-23T04:39:57.414Z,17.90
2022-08-23T04:42:26.611Z,17.90
2022-08-23T04:44:53.530Z,17.90
2022-08-23T04:47:20.523Z,17.90
2022-08-23T04:49:48.812Z,17.90
2022-08-23T04:52:19.218Z,17.90
2022-08-23T04:54:47.166Z,17.90
2022-08-23T04:57:32.545Z,17.90
2022-08-23T05:00:00.600Z,18.00
2022-08-23T05:02:27.844Z,17.90
2022-08-23T05:04:55.898Z,17.90
2022-08-23T05:07:31.927Z,18.00
2022-08-23T05:10:12.602Z,18.00
2022-08-23T05:12:41.620Z,18.00
2022-08-23T05:15:12.163Z,18.10
2022-08-23T05:17:43.735Z,18.10
2022-08-23T05:20:11.286Z,18.10
2022-08-23T05:22:41.429Z,18.20
2022-08-23T05:25:49.011Z,18.20
2022-08-23T05:28:35.088Z,18.20
2022-08-23T05:31:06.854Z,18.20
2022-08-23T05:33:49.463Z,18.20
2022-08-23T05:36:22.121Z,18.30
2022-08-23T05:38:49.614Z,18.30
2022-08-23T05:41:17.744Z,18.30
2022-08-23T05:43:48.901Z,18.40
2022-08-23T05:46:19.854Z,18.40
2022-08-23T05:48:55.507Z,18.40
2022-08-23T05:51:27.305Z,18.50
2022-08-23T05:53:57.384Z,18.40
2022-08-23T05:56:28.236Z,18.50
2022-08-23T05:59:00.016Z,18.40
2022-08-23T06:01:30.172Z,18.50
2022-08-23T06:04:03.476Z,18.50
2022-08-23T06:06:35.059Z,18.50
2022-08-23T06:09:06.979Z,18.50
2022-08-23T06:11:34.774Z,18.60
2022-08-23T06:14:04.353Z,18.60
2022-08-23T06:16:34.064Z,18.70
2022-08-23T06:19:02.539Z,18.70
2022-08-23T06:22:04.782Z,18.80
2022-08-23T06:24:36.040Z,18.90
2022-08-23T06:27:12.162Z,18.90
2022-08-23T06:29:40.346Z,18.90
2022-08-23T06:32:26.035Z,19.00
2022-08-23T06:35:36.808Z,19.10
2022-08-23T06:38:07.590Z,19.10
2022-08-23T06:41:09.518Z,19.10
2022-08-23T06:43:59.343Z,19.20
2022-08-23T06:46:34.153Z,19.30
2022-08-23T06:49:05.025Z,19.40
2022-08-23T06:51:41.290Z,19.60
2022-08-23T06:54:23.167Z,19.70
2022-08-23T06:57:20.723Z,19.80
2022-08-23T07:00:11.160Z,19.80
2022-08-23T07:02:57.422Z,19.90
2022-08-23T07:05:42.915Z,20.00
2022-08-23T07:08:18.467Z,20.00
2022-08-23T07:10:45.268Z,20.00
2022-08-23T07:13:14.085Z,19.90
2022-08-23T07:15:44.210Z,20.00
2022-08-23T07:18:18.022Z,19.90
2022-08-23T07:20:44.814Z,20.10
2022-08-23T07:23:12.016Z,20.10
2022-08-23T07:25:40.603Z,20.20
2022-08-23T07:28:12.167Z,20.20
2022-08-23T07:30:44.956Z,20.30
2022-08-23T07:33:12.882Z,20.40
2022-08-23T07:35:59.777Z,20.30
2022-08-23T07:38:30.552Z,20.40
2022-08-23T07:40:58.724Z,20.50
2022-08-23T07:43:25.894Z,20.50
2022-08-23T07:45:53.497Z,20.50
2022-08-23T07:48:43.375Z,20.60
2022-08-23T07:51:13.917Z,20.60
2022-08-23T07:53:45.799Z,20.60
2022-08-23T07:56:16.967Z,20.60
2022-08-23T07:59:16.254Z,20.60
2022-08-23T08:02:11.280Z,20.70
2022-08-23T08:04:38.759Z,20.80
2022-08-23T08:07:21.729Z,20.80
2022-08-23T08:09:57.708Z,20.90
2022-08-23T08:12:25.139Z,20.80
2022-08-23T08:14:55.110Z,20.90
2022-08-23T08:17:27.838Z,20.90
2022-08-23T08:20:10.364Z,21.00
2022-08-23T08:22:58.717Z,21.00
2022-08-23T08:25:45.486Z,21.10
2022-08-23T08:28:16.061Z,21.10
2022-08-23T08:30:43.484Z,21.20
2022-08-23T08:33:10.590Z,21.30
2022-08-23T08:35:37.711Z,21.20
2022-08-23T08:38:04.725Z,21.30
2022-08-23T08:40:38.625Z,21.40
2022-08-23T08:43:12.666Z,21.40
2022-08-23T08:45:59.164Z,21.40
2022-08-23T08:48:30.159Z,21.40
2022-08-23T08:51:03.623Z,21.30
2022-08-23T08:53:45.908Z,21.40
2022-08-23T08:56:32.641Z,21.40
2022-08-23T08:59:38.720Z,21.40
2022-08-23T09:02:30.417Z,21.30
2022-08-23T09:04:58.241Z,21.40
2022-08-23T09:07:56.491Z,21.50
2022-08-23T09:10:32.330Z,21.50
2022-08-23T09:13:27.517Z,21.50
2022-08-23T09:16:21.720Z,21.60
2022-08-23T09:18:49.013Z,21.60
2022-08-23T09:21:17.654Z,21.70
2022-08-23T09:23:47.909Z,21.70
2022-08-23T09:26:37.411Z,21.80
2022-08-23T09:29:25.795Z,21.90
2022-08-23T09:31:58.234Z,22.00
2022-08-23T09:34:30.681Z,21.90
2022-08-23T09:37:24.530Z,22.00
2022-08-23T09:40:13.148Z,22.00
2022-08-23T09:42:41.538Z,22.10
2022-08-23T09:45:35.427Z,22.20
2022-08-23T09:48:04.823Z,22.10
2022-08-23T09:50:39.879Z,22.10
2022-08-23T09:53:10.641Z,22.20
2022-08-23T09:55:48.045Z,22.30
2022-08-23T09:58:24.437Z,22.40
2022-08-23T10:01:18.641Z,22.40
2022-08-23T10:04:08.518Z,22.50
2022-08-23T10:06:35.973Z,22.50
2022-08-23T10:09:07.475Z,22.50
2022-08-23T10:11:41.644Z,22.40
2022-08-23T10:14:15.903Z,22.30
2022-08-23T10:17:00.424Z,22.30
2022-08-23T10:19:34.790Z,22.40
2022-08-23T10:22:22.022Z,22.40
2022-08-23T10:25:20.735Z,22.40
2022-08-23T10:28:24.313Z,22.40
2022-08-23T10:30:51.077Z,22.50
2022-08-23T10:33:26.689Z,22.50
2022-08-23T10:36:09.033Z,22.50
2022-08-23T10:39:03.342Z,22.50
2022-08-23T10:41:40.239Z,22.70
2022-08-23T10:44:35.294Z,22.80
2022-08-23T10:47:24.613Z,22.80
2022-08-23T10:49:53.910Z,22.80
2022-08-23T10:52:40.415Z,23.00
2022-08-23T10:55:24.617Z,22.80
2022-08-23T10:57:52.769Z,22.90
2022-08-23T11:00:25.305Z,22.90
2022-08-23T11:02:57.520Z,22.90
2022-08-23T11:05:35.344Z,22.90
2022-08-23T11:08:34.241Z,23.00
2022-08-23T11:11:04.681Z,23.10
2022-08-23T11:13:35.160Z,23.20
2022-08-23T11:16:15.289Z,23.20
2022-08-23T11:18:50.322Z,23.20
2022-08-23T11:21:33.321Z,23.30
2022-08-23T11:24:04.683Z,23.40
2022-08-23T11:26:40.828Z,23.40
2022-08-23T11:29:12.425Z,23.50
2022-08-23T11:32:05.285Z,23.60
2022-08-23T11:34:55.173Z,23.50
2022-08-23T11:37:22.090Z,23.50
2022-08-23T11:40:18.432Z,23.50
2022-08-23T11:42:52.122Z,23.70
2022-08-23T11:45:33.267Z,23.90
2022-08-23T11:48:13.809Z,24.00
2022-08-23T11:51:18.038Z,24.30
2022-08-23T11:53:44.840Z,24.20
2022-08-23T11:56:46.741Z,23.90
2022-08-23T11:59:29.977Z,24.00
2022-08-23T12:01:59.332Z,24.00
2022-08-23T12:04:37.725Z,24.20
2022-08-23T12:07:12.405Z,24.40
2022-08-23T12:09:42.017Z,24.40
2022-08-23T12:12:25.061Z,24.20
2022-08-23T12:14:56.321Z,24.10
2022-08-23T12:17:25.870Z,24.20
2022-08-23T12:20:00.454Z,24.40
2022-08-23T12:22:34.091Z,24.30
2022-08-23T12:25:05.384Z,24.20
2022-08-23T12:28:20.827Z,24.30
2022-08-23T12:31:00.074Z,24.10
2022-08-23T12:34:20.352Z,24.10
2022-08-23T12:37:11.135Z,24.40
2022-08-23T12:39:47.009Z,24.60
2022-08-23T12:42:17.539Z,24.70
2022-08-23T12:44:46.844Z,24.70
2022-08-23T12:47:19.771Z,24.90
2022-08-23T12:50:02.241Z,24.50
2022-08-23T12:52:32.565Z,24.40
2022-08-23T12:55:00.014Z,24.40
2022-08-23T12:57:43.882Z,24.40
2022-08-23T13:00:20.189Z,24.30
2022-08-23T13:03:17.625Z,24.20
2022-08-23T13:05:48.416Z,24.20
2022-08-23T13:08:34.888Z,24.10
2022-08-23T13:11:07.806Z,24.20
2022-08-23T13:13:38.726Z,24.40
2022-08-23T13:16:27.685Z,24.50
2022-08-23T13:19:09.932Z,24.30
2022-08-23T13:21:39.998Z,24.40
2022-08-23T13:24:29.944Z,24.60
2022-08-23T13:27:21.725Z,24.70
2022-08-23T13:29:54.098Z,24.60
2022-08-23T13:32:28.698Z,24.50
2022-08-23T13:35:16.008Z,24.70
2022-08-23T13:37:46.611Z,24.70
2022-08-23T13:40:21.508Z,24.60
2022-08-23T13:42:57.217Z,24.40
2022-08-23T13:45:35.013Z,24.50
2022-08-23T13:48:10.296Z,24.50
2022-08-23T13:50:38.413Z,24.70
2022-08-23T13:53:21.213Z,24.70
2022-08-23T13:55:54.453Z,24.60
2022-08-23T13:58:33.763Z,24.40
2022-08-23T14:01:02.119Z,24.60
2022-08-23T14:03:31.431Z,24.60
2022-08-23T14:05:58.299Z,24.50
2022-08-23T14:08:25.123Z,24.30
2022-08-23T14:10:52.309Z,24.20
2022-08-23T14:13:29.624Z,24.20
2022-08-23T14:21:38.608Z,24.60
2022-08-23T14:24:05.635Z,24.70
2022-08-23T14:26:32.704Z,24.90
2022-08-23T14:28:59.513Z,25.00
2022-08-23T14:31:26.766Z,25.00
2022-08-23T14:33:53.595Z,25.10
2022-08-23T14:36:21.613Z,25.00
2022-08-23T14:38:53.586Z,24.90
2022-08-23T14:41:26.245Z,24.90
2022-08-23T14:43:53.988Z,24.70
2022-08-23T14:46:22.477Z,24.70
2022-08-23T14:48:49.429Z,24.80
2022-08-23T14:51:32.498Z,24.70
2022-08-23T14:54:01.545Z,24.70
2022-08-23T14:56:28.384Z,24.80
2022-08-23T14:58:55.337Z,24.90
2022-08-23T15:01:22.872Z,25.00
2022-08-23T15:03:50.455Z,25.00
2022-08-23T15:06:20.756Z,24.90
2022-08-23T15:08:48.874Z,24.90
2022-08-23T15:14:02.729Z,24.50
2022-08-23T15:16:30.021Z,24.40
2022-08-23T15:18:57.655Z,24.50
2022-08-23T15:21:24.468Z,24.50
2022-08-23T15:23:51.279Z,24.50
2022-08-23T15:26:22.171Z,24.50
2022-08-23T15:28:49.961Z,24.50
2022-08-23T15:31:18.227Z,24.40
2022-08-23T15:33:45.739Z,24.30
2022-08-23T15:36:14.037Z,24.20
2022-08-23T15:38:44.788Z,24.10
2022-08-23T15:41:12.262Z,24.00
2022-08-23T15:43:39.769Z,23.90
2022-08-23T15:46:09.970Z,23.80
2022-08-23T15:48:44.549Z,23.80
2022-08-23T15:51:12.323Z,23.90
2022-08-23T15:53:40.105Z,24.00
2022-08-23T15:56:20.134Z,24.10
2022-08-23T15:58:47.287Z,24.30
2022-08-23T16:01:14.705Z,24.40
2022-08-23T16:03:45.056Z,24.40
2022-08-23T16:06:13.843Z,24.50
2022-08-23T16:08:52.240Z,24.50
2022-08-23T16:11:20.106Z,24.50
2022-08-23T16:13:48.506Z,24.60
2022-08-23T16:16:25.317Z,24.70
2022-08-23T16:18:54.069Z,24.60
2022-08-23T16:21:22.232Z,24.70
2022-08-23T16:23:49.150Z,24.70
2022-08-23T16:26:21.575Z,24.70
2022-08-23T16:28:51.230Z,24.70
2022-08-23T16:31:18.843Z,24.60
2022-08-23T16:33:47.792Z,24.50
2022-08-23T16:36:17.790Z,24.50
2022-08-23T16:38:45.615Z,24.40
2022-08-23T16:41:13.488Z,24.30
2022-08-23T16:43:40.770Z,24.30
2022-08-23T16:46:08.919Z,24.30
2022-08-23T16:48:35.839Z,24.40
2022-08-23T16:51:02.720Z,24.30
2022-08-23T16:53:29.627Z,24.20
2022-08-23T16:55:56.535Z,24.20
2022-08-23T16:58:23.943Z,24.10
2022-08-23T17:00:50.897Z,24.00
2022-08-23T17:03:19.697Z,24.00
2022-08-23T17:05:47.568Z,23.90
2022-08-23T17:08:14.584Z,23.90
2022-08-23T17:10:42.326Z,23.80
2022-08-23T17:13:11.637Z,23.70
2022-08-23T17:15:38.818Z,23.70
2022-08-23T17:18:06.844Z,23.70
2022-08-23T17:20:36.362Z,23.50
2022-08-23T17:23:05.667Z,23.50
2022-08-23T17:25:33.295Z,23.50
2022-08-23T17:28:00.297Z,23.40
2022-08-23T17:30:29.504Z,23.30
2022-08-23T17:32:57.137Z,23.20
2022-08-23T17:35:28.395Z,23.10
2022-08-23T17:38:02.423Z,23.00
2022-08-23T17:40:33.152Z,23.00
2022-08-23T17:43:00.959Z,22.90
2022-08-23T17:45:29.712Z,22.80
2022-08-23T17:47:56.588Z,22.70
2022-08-23T17:50:23.974Z,22.70
2022-08-23T17:52:50.900Z,22.60
2022-08-23T17:55:19.368Z,22.60
2022-08-23T17:57:47.908Z,22.50
2022-08-23T18:00:17.575Z,22.50
2022-08-23T18:02:44.446Z,22.40
2022-08-23T18:05:11.943Z,22.40
2022-08-23T18:07:39.997Z,22.30
2022-08-23T18:10:08.368Z,22.30
2022-08-23T18:12:35.540Z,22.20
2022-08-23T18:15:04.294Z,22.10
2022-08-23T18:17:32.984Z,22.00
2022-08-23T18:20:00.366Z,21.90
2022-08-23T18:22:27.534Z,21.90
2022-08-23T18:24:54.389Z,21.80
2022-08-23T18:27:39.713Z,21.70
2022-08-23T18:30:09.154Z,21.70
2022-08-23T18:32:36.756Z,21.70
2022-08-23T18:35:05.517Z,21.60
2022-08-23T18:37:32.662Z,21.50
2022-08-23T18:39:59.548Z,21.40
2022-08-23T18:42:27.135Z,21.40
2022-08-23T18:44:54.166Z,21.40
2022-08-23T18:47:20.993Z,21.30
2022-08-23T18:49:48.732Z,21.30
2022-08-23T18:52:15.666Z,21.30
2022-08-23T18:54:42.514Z,21.20
2022-08-23T18:57:15.636Z,21.20
2022-08-23T18:59:43.389Z,21.10
2022-08-23T19:02:10.660Z,21.00
2022-08-23T19:04:37.584Z,20.90
2022-08-23T19:07:05.149Z,20.80
2022-08-23T19:09:32.010Z,20.80
2022-08-23T19:12:00.699Z,20.60
2022-08-23T19:14:28.507Z,20.60
2022-08-23T19:16:55.762Z,20.50
2022-08-23T19:19:23.228Z,20.50
2022-08-23T19:21:50.365Z,20.40
2022-08-23T19:24:17.516Z,20.30
2022-08-23T19:26:47.452Z,20.20
2022-08-23T19:29:16.085Z,20.20
2022-08-23T19:31:46.641Z,20.10
2022-08-23T19:34:18.920Z,20.10
2022-08-23T19:36:51.251Z,20.00
2022-08-23T19:39:24.618Z,20.00
2022-08-23T19:41:51.484Z,19.90
2022-08-23T19:44:18.578Z,19.90
2022-08-23T19:46:45.624Z,19.80
2022-08-23T19:49:14.543Z,19.80
2022-08-23T19:51:42.640Z,19.80
2022-08-23T19:54:12.106Z,19.70
2022-08-23T19:56:48.410Z,19.70
2022-08-23T19:59:21.174Z,19.60
2022-08-23T20:01:49.674Z,19.60
2022-08-23T20:04:17.864Z,19.60
2022-08-23T20:06:44.945Z,19.60
2022-08-23T20:09:12.266Z,19.50
2022-08-23T20:11:39.592Z,19.50
2022-08-23T20:14:06.881Z,19.50
2022-08-23T20:16:35.006Z,19.50
2022-08-23T20:19:02.290Z,19.40
2022-08-23T20:21:29.510Z,19.40
2022-08-23T20:24:03.446Z,19.30
2022-08-23T20:26:56.708Z,19.20
2022-08-23T20:29:23.592Z,19.20
2022-08-23T20:31:53.501Z,19.20
2022-08-23T20:34:20.882Z,19.10
2022-08-23T20:36:48.047Z,19.10
2022-08-23T20:39:19.209Z,19.10
2022-08-23T20:41:49.358Z,19.10
2022-08-23T20:44:19.588Z,19.10
2022-08-23T20:46:48.674Z,19.10
2022-08-23T20:49:18.312Z,19.10
2022-08-23T20:51:45.362Z,19.10
2022-08-23T20:54:13.706Z,19.10
2022-08-23T20:56:40.744Z,19.00
2022-08-23T20:59:08.570Z,19.00
2022-08-23T21:01:36.030Z,19.00
2022-08-23T21:04:03.261Z,18.90
2022-08-23T21:06:38.561Z,18.90
2022-08-23T21:09:05.664Z,18.90
2022-08-23T21:11:32.489Z,18.90
2022-08-23T21:13:59.572Z,18.80
2022-08-23T21:16:27.692Z,18.80
2022-08-23T21:18:56.702Z,18.80
2022-08-23T21:21:25.042Z,18.80
2022-08-23T21:23:53.195Z,18.80
2022-08-23T21:26:21.044Z,18.70
2022-08-23T21:28:48.352Z,18.70
2022-08-23T21:31:18.650Z,18.70
2022-08-23T21:33:46.201Z,18.70
2022-08-23T21:36:14.826Z,18.70
2022-08-23T21:38:41.710Z,18.60
2022-08-23T21:41:25.486Z,18.60
2022-08-23T21:43:52.590Z,18.60
2022-08-23T21:46:19.434Z,18.60
2022-08-23T21:48:46.259Z,18.60
2022-08-23T21:51:13.057Z,18.60
2022-08-23T21:53:40.099Z,18.60
2022-08-23T21:56:07.055Z,18.60
2022-08-23T21:58:33.879Z,18.50
2022-08-23T22:01:00.698Z,18.50
2022-08-23T22:03:28.588Z,18.50
2022-08-23T22:05:56.065Z,18.40
2022-08-23T22:08:22.907Z,18.40
2022-08-23T22:10:57.315Z,18.30
2022-08-23T22:13:28.576Z,18.30
2022-08-23T22:15:56.288Z,18.30
2022-08-23T22:18:23.214Z,18.20
2022-08-23T22:20:50.119Z,18.20
2022-08-23T22:23:17.317Z,18.20
2022-08-23T22:25:44.265Z,18.20
2022-08-23T22:28:11.146Z,18.10
2022-08-23T22:30:38.044Z,18.10
2022-08-23T22:33:05.070Z,18.10
2022-08-23T22:35:35.524Z,18.10
2022-08-23T22:38:14.597Z,18.00
2022-08-23T22:40:49.641Z,18.00
2022-08-23T22:43:17.871Z,17.90
2022-08-23T22:46:02.624Z,17.90
2022-08-23T22:48:31.435Z,17.80
2022-08-23T22:51:13.271Z,17.80
2022-08-23T22:53:44.439Z,17.80
2022-08-23T22:56:14.001Z,17.80
2022-08-23T22:58:41.236Z,17.80
2022-08-23T23:01:13.397Z,17.60
2022-08-23T23:03:41.289Z,17.60
2022-08-23T23:06:08.911Z,17.60
2022-08-23T23:08:35.770Z,17.50
2022-08-23T23:11:05.585Z,17.50
2022-08-23T23:13:33.751Z,17.40
2022-08-23T23:16:07.032Z,17.40
2022-08-23T23:18:34.850Z,17.40
2022-08-23T23:21:03.472Z,17.30
2022-08-23T23:23:31.595Z,17.30
2022-08-23T23:25:59.088Z,17.30
2022-08-23T23:28:26.455Z,17.30
2022-08-23T23:30:54.924Z,17.30
2022-08-23T23:33:22.593Z,17.30
2022-08-23T23:35:51.617Z,17.30
2022-08-23T23:38:18.928Z,17.30
2022-08-23T23:40:45.925Z,17.30
2022-08-23T23:43:13.148Z,17.30
2022-08-23T23:45:41.177Z,17.30
2022-08-23T23:48:08.762Z,17.30
2022-08-23T23:50:36.856Z,17.20
2022-08-23T23:53:04.581Z,17.20
2022-08-23T23:55:31.411Z,17.20
2022-08-23T23:57:58.615Z,17.20
